createdAt,value
2018-03-21T00:01:27.765Z,6.20
2018-03-21T00:03:56.015Z,5.57
2018-03-21T00:06:24.240Z,6.03
2018-03-21T00:08:52.596Z,4.20
2018-03-21T00:11:20.859Z,5.45
2018-03-21T00:13:49.097Z,7.87
2018-03-21T00:16:18.112Z,5.35
2018-03-21T00:18:46.350Z,4.12
2018-03-21T00:21:14.588Z,3.75
2018-03-21T00:23:42.816Z,3.50
2018-03-21T00:26:11.854Z,5.03
2018-03-21T00:28:40.094Z,4.40
2018-03-21T00:31:09.245Z,4.75
2018-03-21T00:33:37.488Z,7.55
2018-03-21T00:36:05.756Z,5.57
2018-03-21T00:38:34.048Z,4.62
2018-03-21T00:41:02.286Z,3.80
2018-03-21T00:43:31.291Z,3.80
2018-03-21T00:45:59.537Z,5.93
2018-03-21T00:48:27.862Z,6.80
2018-03-21T00:50:56.146Z,4.37
2018-03-21T00:53:24.403Z,7.78
2018-03-21T00:55:52.640Z,5.78
2018-03-21T00:58:21.649Z,3.83
2018-03-21T01:00:50.648Z,7.55
2018-03-21T01:03:18.904Z,4.57
2018-03-21T01:05:47.935Z,6.05
2018-03-21T01:08:16.208Z,5.45
2018-03-21T01:10:44.480Z,3.10
2018-03-21T01:13:12.756Z,7.22
2018-03-21T01:15:40.998Z,4.45
2018-03-21T01:18:10.028Z,3.97
2018-03-21T01:20:38.260Z,6.50
2018-03-21T01:23:07.307Z,3.80
2018-03-21T01:25:35.554Z,4.93
2018-03-21T01:28:03.783Z,4.35
2018-03-21T01:30:32.119Z,4.87
2018-03-21T01:33:00.413Z,3.85
2018-03-21T01:35:28.656Z,5.97
2018-03-21T01:37:56.898Z,5.60
2018-03-21T01:40:25.139Z,3.28
2018-03-21T01:42:53.372Z,3.67
2018-03-21T01:45:21.667Z,7.18
2018-03-21T01:47:49.955Z,6.18
2018-03-21T01:50:18.193Z,3.33
2018-03-21T01:52:47.196Z,6.60
2018-03-21T01:55:15.442Z,7.50
2018-03-21T01:57:43.689Z,5.95
2018-03-21T02:00:11.916Z,5.35
2018-03-21T02:02:40.169Z,6.12
2018-03-21T02:05:09.164Z,3.75
2018-03-21T02:07:37.489Z,5.25
2018-03-21T02:10:05.756Z,4.45
2018-03-21T02:12:34.002Z,3.97
2018-03-21T02:15:02.999Z,5.90
2018-03-21T02:17:32.016Z,6.28
2018-03-21T02:20:00.248Z,6.18
2018-03-21T02:22:29.285Z,4.70
2018-03-21T02:24:57.524Z,3.20
2018-03-21T02:27:26.534Z,4.35
2018-03-21T02:29:54.777Z,4.20
2018-03-21T02:32:23.028Z,4.82
2018-03-21T02:34:51.262Z,4.55
2018-03-21T02:37:19.554Z,7.50
2018-03-21T02:39:47.794Z,4.65
2018-03-21T02:42:16.848Z,5.53
2018-03-21T02:44:45.073Z,3.55
2018-03-21T02:47:14.063Z,3.50
2018-03-21T02:49:42.370Z,5.30
2018-03-21T02:52:10.592Z,4.80
2018-03-21T02:54:39.610Z,4.25
2018-03-21T02:57:07.907Z,3.83
2018-03-21T02:59:36.180Z,4.93
2018-03-21T03:02:04.415Z,4.78
2018-03-21T03:04:33.440Z,5.07
2018-03-21T03:07:02.466Z,6.65
2018-03-21T03:09:30.768Z,4.62
2018-03-21T03:11:58.947Z,5.20
2018-03-21T03:14:27.987Z,4.68
2018-03-21T03:16:56.256Z,7.57
2018-03-21T03:19:24.487Z,6.10
2018-03-21T03:21:52.813Z,5.50
2018-03-21T03:24:21.045Z,4.95
2018-03-21T03:26:50.062Z,8.10
2018-03-21T03:29:18.288Z,5.68
2018-03-21T03:31:46.625Z,6.22
2018-03-21T03:34:14.863Z,7.70
2018-03-21T03:36:43.901Z,8.50
2018-03-21T03:39:12.163Z,7.85
2018-03-21T03:41:40.427Z,12.98
2018-03-21T03:44:08.670Z,11.93
2018-03-21T03:46:37.001Z,17.85
2018-03-21T03:49:05.244Z,8.93
2018-03-21T03:51:34.260Z,9.68
2018-03-21T03:54:02.545Z,11.98
2018-03-21T03:56:30.779Z,17.37
2018-03-21T03:58:59.787Z,16.33
2018-03-21T04:01:28.028Z,14.25
2018-03-21T04:03:56.274Z,9.90
2018-03-21T04:06:24.559Z,12.05
2018-03-21T04:08:52.821Z,14.43
2018-03-21T04:11:21.057Z,12.37
2018-03-21T04:13:49.300Z,17.85
2018-03-21T04:16:17.624Z,13.05
2018-03-21T04:18:45.867Z,12.32
2018-03-21T04:21:14.900Z,10.45
2018-03-21T04:23:43.134Z,14.50
2018-03-21T04:26:12.143Z,16.77
2018-03-21T04:28:40.446Z,10.30
2018-03-21T04:31:08.694Z,12.95
2018-03-21T04:33:36.989Z,12.90
2018-03-21T04:36:05.264Z,8.15
2018-03-21T04:38:33.500Z,10.65
2018-03-21T04:41:02.528Z,21.65
2018-03-21T04:43:30.805Z,15.13
2018-03-21T04:45:59.044Z,14.07
2018-03-21T04:48:28.056Z,14.52
2018-03-21T04:50:56.298Z,11.12
2018-03-21T04:53:25.342Z,12.93
2018-03-21T04:55:53.576Z,10.63
2018-03-21T04:58:22.587Z,12.60
2018-03-21T05:00:50.824Z,12.63
2018-03-21T05:03:19.163Z,10.80
2018-03-21T05:05:47.408Z,14.15
2018-03-21T05:08:16.432Z,10.20
2018-03-21T05:10:44.711Z,12.40
2018-03-21T05:13:12.983Z,9.45
2018-03-21T05:15:41.211Z,8.23
2018-03-21T05:18:09.452Z,9.60
2018-03-21T05:20:37.711Z,9.48
2018-03-21T05:23:05.979Z,10.13
2018-03-21T05:25:34.229Z,9.70
2018-03-21T05:28:03.244Z,10.63
2018-03-21T05:30:31.521Z,11.68
2018-03-21T05:32:59.763Z,9.32
2018-03-21T05:35:28.067Z,9.75
2018-03-21T05:37:56.357Z,6.82
2018-03-21T05:40:24.584Z,8.73
2018-03-21T05:42:53.618Z,6.70
2018-03-21T05:45:21.856Z,9.07
2018-03-21T05:47:50.879Z,4.68
2018-03-21T05:50:20.080Z,8.50
2018-03-21T05:52:48.353Z,8.20
2018-03-21T05:55:16.575Z,8.63
2018-03-21T05:57:44.907Z,10.90
2018-03-21T06:00:13.172Z,9.27
2018-03-21T06:02:41.420Z,9.52
2018-03-21T06:05:10.416Z,8.30
2018-03-21T06:07:39.440Z,9.90
2018-03-21T06:10:07.716Z,8.43
2018-03-21T06:12:35.992Z,10.65
2018-03-21T06:15:04.263Z,12.57
2018-03-21T06:17:32.546Z,8.85
2018-03-21T06:20:00.789Z,11.52
2018-03-21T06:22:29.825Z,8.73
2018-03-21T06:24:58.065Z,12.55
2018-03-21T06:27:26.361Z,11.98
2018-03-21T06:29:54.657Z,11.30
2018-03-21T06:32:22.917Z,13.77
2018-03-21T06:34:51.194Z,15.00
2018-03-21T06:37:19.427Z,14.95
2018-03-21T06:39:48.427Z,15.43
2018-03-21T06:42:17.431Z,15.43
2018-03-21T06:44:45.727Z,13.55
2018-03-21T06:47:13.965Z,16.12
2018-03-21T06:49:42.971Z,12.48
2018-03-21T06:52:11.256Z,13.90
2018-03-21T06:54:39.588Z,12.43
2018-03-21T06:57:07.805Z,14.48
2018-03-21T06:59:36.047Z,15.98
2018-03-21T07:02:05.061Z,12.05
2018-03-21T07:04:33.352Z,13.90
2018-03-21T07:07:01.590Z,15.60
2018-03-21T07:09:30.630Z,14.20
2018-03-21T07:11:58.873Z,12.85
2018-03-21T07:14:39.983Z,14.18
2018-03-21T07:17:08.208Z,12.37
2018-03-21T07:19:37.244Z,12.50
2018-03-21T07:22:05.487Z,11.45
2018-03-21T07:24:34.499Z,14.63
2018-03-21T07:27:02.731Z,15.27
2018-03-21T07:29:31.761Z,17.90
2018-03-21T07:32:00.000Z,14.43
2018-03-21T07:34:29.040Z,12.37
2018-03-21T07:36:57.327Z,12.27
2018-03-21T07:39:25.564Z,10.53
2018-03-21T07:41:54.582Z,12.10
2018-03-21T07:44:22.815Z,12.33
2018-03-21T07:46:51.061Z,14.13
2018-03-21T07:49:20.141Z,15.10
2018-03-21T07:51:48.394Z,19.93
2018-03-21T07:54:16.642Z,7.03
2018-03-21T07:56:44.907Z,4.63
2018-03-21T07:59:13.121Z,4.43
2018-03-21T08:01:41.404Z,2.93
2018-03-21T08:04:09.731Z,5.67
2018-03-21T08:06:37.961Z,3.07
2018-03-21T08:09:06.212Z,2.40
2018-03-21T08:11:34.508Z,2.80
2018-03-21T08:14:02.776Z,2.77
2018-03-21T08:16:31.058Z,2.37
2018-03-21T08:18:59.296Z,2.90
2018-03-21T08:21:28.301Z,3.83
2018-03-21T08:23:56.545Z,4.87
2018-03-21T08:26:24.824Z,3.23
2018-03-21T08:28:53.044Z,3.07
2018-03-21T08:31:21.289Z,4.67
2018-03-21T08:33:50.320Z,3.57
2018-03-21T08:36:18.601Z,2.97
2018-03-21T08:38:46.849Z,2.27
2018-03-21T08:41:15.909Z,3.57
2018-03-21T08:43:44.147Z,2.40
2018-03-21T08:46:12.562Z,4.03
2018-03-21T08:48:40.771Z,3.97
2018-03-21T08:51:09.012Z,5.67
2018-03-21T08:53:37.247Z,2.77
2018-03-21T08:56:05.509Z,1.97
2018-03-21T08:58:33.793Z,3.97
2018-03-21T09:01:02.045Z,3.27
2018-03-21T09:03:30.345Z,3.78
2018-03-21T09:05:58.591Z,5.10
2018-03-21T09:08:26.891Z,6.37
2018-03-21T09:10:55.160Z,4.65
2018-03-21T09:13:23.405Z,3.95
2018-03-21T09:15:52.698Z,3.37
2018-03-21T09:18:21.008Z,3.10
2018-03-21T09:20:49.262Z,5.30
2018-03-21T09:23:18.289Z,5.77
2018-03-21T09:25:46.519Z,6.00
2018-03-21T09:28:15.537Z,5.03
2018-03-21T09:30:43.825Z,4.10
2018-03-21T09:33:12.073Z,3.43
2018-03-21T09:35:41.102Z,5.93
2018-03-21T09:38:09.364Z,6.07
2018-03-21T09:40:37.693Z,3.83
2018-03-21T09:43:05.908Z,4.27
2018-03-21T09:45:34.148Z,5.93
2018-03-21T09:48:02.403Z,3.23
2018-03-21T09:50:30.629Z,6.20
2018-03-21T09:52:58.868Z,4.23
2018-03-21T09:55:27.243Z,4.20
2018-03-21T09:57:55.461Z,5.10
2018-03-21T10:00:23.704Z,6.07
2018-03-21T10:02:52.715Z,6.93
2018-03-21T10:05:21.012Z,3.40
2018-03-21T10:07:49.302Z,6.20
2018-03-21T10:10:22.464Z,4.73
2018-03-21T10:12:50.696Z,6.27
2018-03-21T10:15:20.436Z,5.83
2018-03-21T10:17:48.739Z,3.90
2018-03-21T10:20:16.969Z,4.67
2018-03-21T10:22:45.987Z,5.67
2018-03-21T10:25:14.212Z,4.40
2018-03-21T10:27:42.447Z,4.80
2018-03-21T10:30:10.679Z,4.70
2018-03-21T10:32:39.705Z,4.13
2018-03-21T10:35:07.948Z,8.40
2018-03-21T10:37:36.987Z,6.62
2018-03-21T10:40:05.244Z,4.47
2018-03-21T10:42:33.541Z,6.82
2018-03-21T10:45:01.797Z,4.53
2018-03-21T10:47:30.037Z,5.93
2018-03-21T10:49:58.293Z,5.65
2018-03-21T10:52:38.776Z,4.12
2018-03-21T10:54:54.811Z,4.18
2018-03-21T10:57:23.048Z,3.87
2018-03-21T10:59:52.059Z,4.65
2018-03-21T11:02:21.101Z,3.72
2018-03-21T11:04:49.317Z,5.30
2018-03-21T11:07:18.321Z,5.72
2018-03-21T11:09:46.674Z,5.32
2018-03-21T11:12:16.221Z,5.20
2018-03-21T11:14:44.502Z,6.20
2018-03-21T11:17:12.736Z,5.20
2018-03-21T11:19:41.769Z,4.12
2018-03-21T11:22:10.031Z,4.97
2018-03-21T11:24:38.330Z,3.95
2018-03-21T11:27:06.568Z,4.28
2018-03-21T11:29:35.556Z,3.90
2018-03-21T11:32:04.682Z,3.00
2018-03-21T11:34:32.962Z,3.62
2018-03-21T11:37:01.231Z,3.30
2018-03-21T11:39:29.464Z,3.70
2018-03-21T11:41:57.684Z,4.07
2018-03-21T11:44:25.954Z,3.42
2018-03-21T11:46:54.236Z,4.85
2018-03-21T11:49:22.465Z,6.22
2018-03-21T11:51:51.500Z,4.25
2018-03-21T11:54:19.740Z,3.78
2018-03-21T11:56:48.014Z,4.97
2018-03-21T11:59:16.381Z,5.97
2018-03-21T12:01:44.615Z,4.72
2018-03-21T12:04:12.856Z,4.03
2018-03-21T12:06:41.858Z,3.95
2018-03-21T12:09:10.085Z,4.82
2018-03-21T12:11:38.473Z,2.95
2018-03-21T12:14:06.694Z,3.85
2018-03-21T12:16:34.933Z,4.12
2018-03-21T12:19:03.242Z,3.40
2018-03-21T12:21:31.472Z,3.97
2018-03-21T12:23:59.793Z,3.17
2018-03-21T12:26:28.024Z,3.67
2018-03-21T12:28:56.261Z,4.65
2018-03-21T12:31:24.531Z,3.28
2018-03-21T12:33:52.761Z,3.78
2018-03-21T12:36:21.020Z,4.15
2018-03-21T12:38:49.349Z,8.50
2018-03-21T12:41:17.619Z,4.00
2018-03-21T12:43:45.852Z,3.60
2018-03-21T12:46:14.178Z,5.70
2018-03-21T12:48:42.408Z,7.15
2018-03-21T12:51:10.639Z,4.93
2018-03-21T12:53:38.912Z,3.05
2018-03-21T12:56:07.157Z,5.82
2018-03-21T12:58:35.459Z,5.75
2018-03-21T13:01:03.775Z,5.28
2018-03-21T13:03:32.004Z,5.30
2018-03-21T13:06:00.232Z,5.85
2018-03-21T13:08:28.556Z,7.75
2018-03-21T13:10:56.788Z,5.20
2018-03-21T13:13:25.811Z,6.87
2018-03-21T13:15:54.058Z,3.50
2018-03-21T13:18:22.380Z,3.37
2018-03-21T13:20:50.613Z,5.95
2018-03-21T13:23:18.846Z,7.05
2018-03-21T13:25:47.104Z,6.82
2018-03-21T13:28:15.332Z,5.32
2018-03-21T13:30:43.564Z,7.47
2018-03-21T13:33:11.836Z,5.03
2018-03-21T13:35:40.078Z,5.65
2018-03-21T13:38:09.069Z,3.35
2018-03-21T13:40:38.088Z,5.40
2018-03-21T13:43:06.333Z,5.60
2018-03-21T13:45:35.367Z,5.80
2018-03-21T13:48:03.606Z,5.72
2018-03-21T13:50:32.675Z,4.28
2018-03-21T13:53:00.875Z,5.05
2018-03-21T13:55:29.104Z,4.03
2018-03-21T13:57:57.339Z,4.60
2018-03-21T14:00:25.622Z,4.75
2018-03-21T14:02:53.901Z,5.15
2018-03-21T14:05:22.164Z,7.80
2018-03-21T14:07:50.449Z,5.87
2018-03-21T14:10:18.684Z,3.70
2018-03-21T14:12:47.686Z,7.97
2018-03-21T14:15:16.675Z,3.85
2018-03-21T14:17:45.707Z,5.12
2018-03-21T14:20:13.940Z,5.00
2018-03-21T14:22:42.928Z,4.37
2018-03-21T14:25:12.010Z,5.12
2018-03-21T14:27:40.220Z,5.12
2018-03-21T14:30:08.610Z,3.00
2018-03-21T14:32:36.780Z,3.08
2018-03-21T14:35:05.025Z,5.35
2018-03-21T14:37:34.011Z,3.05
2018-03-21T14:40:03.251Z,3.20
2018-03-21T14:42:31.529Z,4.07
2018-03-21T14:44:59.807Z,5.93
2018-03-21T14:47:28.765Z,6.72
2018-03-21T14:49:57.795Z,6.80
2018-03-21T14:52:26.017Z,3.42
2018-03-21T14:54:54.252Z,4.10
2018-03-21T14:57:22.475Z,8.85
2018-03-21T14:59:51.508Z,4.57
2018-03-21T15:02:19.736Z,5.60
2018-03-21T15:04:48.736Z,9.52
2018-03-21T15:07:17.729Z,4.28
2018-03-21T15:09:46.752Z,7.32
2018-03-21T15:12:14.980Z,3.60
2018-03-21T15:14:43.300Z,3.72
2018-03-21T15:17:11.588Z,5.12
2018-03-21T15:19:39.906Z,3.58
2018-03-21T15:22:08.127Z,4.87
2018-03-21T15:24:36.349Z,7.32
2018-03-21T15:27:04.685Z,3.72
2018-03-21T15:29:32.966Z,4.93
2018-03-21T15:32:01.242Z,6.10
2018-03-21T15:34:29.471Z,5.85
2018-03-21T15:36:58.496Z,4.47
2018-03-21T15:39:26.826Z,6.05
2018-03-21T15:41:55.052Z,3.92
2018-03-21T15:44:23.333Z,5.78
2018-03-21T15:46:51.560Z,4.18
2018-03-21T15:49:19.783Z,4.53
2018-03-21T15:51:48.235Z,4.72
2018-03-21T15:54:16.469Z,6.37
2018-03-21T15:56:44.858Z,5.65
2018-03-21T15:59:13.065Z,5.28
2018-03-21T16:01:42.076Z,3.12
2018-03-21T16:04:10.313Z,6.50
2018-03-21T16:06:39.301Z,4.07
2018-03-21T16:09:07.611Z,4.72
2018-03-21T16:11:35.848Z,4.65
2018-03-21T16:14:04.164Z,4.65
2018-03-21T16:16:32.444Z,4.72
2018-03-21T16:19:00.680Z,7.22
2018-03-21T16:21:29.020Z,4.03
2018-03-21T16:23:57.272Z,4.03
2018-03-21T16:26:25.541Z,3.65
2018-03-21T16:28:53.773Z,5.60
2018-03-21T16:31:22.043Z,4.07
2018-03-21T16:33:50.254Z,4.70
2018-03-21T16:36:19.239Z,3.45
2018-03-21T16:38:47.474Z,4.82
2018-03-21T16:41:15.818Z,3.65
2018-03-21T16:43:44.092Z,5.95
2018-03-21T16:46:12.328Z,5.28
2018-03-21T16:48:41.316Z,5.05
2018-03-21T16:51:10.349Z,8.98
2018-03-21T16:53:38.602Z,10.48
2018-03-21T16:56:07.592Z,10.30
2018-03-21T16:58:35.827Z,8.13
2018-03-21T17:01:04.056Z,8.63
2018-03-21T17:03:32.336Z,6.65
2018-03-21T17:06:00.616Z,5.18
2018-03-21T17:08:28.848Z,5.05
2018-03-21T17:10:57.876Z,4.12
2018-03-21T17:13:26.160Z,7.57
2018-03-21T17:15:54.428Z,8.15
2018-03-21T17:18:22.659Z,6.95
2018-03-21T17:20:51.708Z,9.25
2018-03-21T17:23:19.980Z,9.32
2018-03-21T17:25:48.257Z,7.85
2018-03-21T17:28:16.513Z,8.52
2018-03-21T17:30:44.745Z,7.35
2018-03-21T17:33:12.976Z,8.98
2018-03-21T17:35:41.290Z,13.43
2018-03-21T17:38:09.528Z,8.75
2018-03-21T17:40:37.799Z,8.00
2018-03-21T17:43:06.034Z,7.55
2018-03-21T17:45:34.343Z,7.10
2018-03-21T17:48:02.628Z,10.10
2018-03-21T17:50:30.902Z,7.80
2018-03-21T17:52:59.121Z,9.18
2018-03-21T17:55:27.361Z,12.13
2018-03-21T17:57:55.598Z,10.52
2018-03-21T18:00:24.620Z,9.68
2018-03-21T18:02:52.843Z,9.82
2018-03-21T18:05:22.576Z,7.50
2018-03-21T18:07:51.585Z,7.87
2018-03-21T18:10:19.868Z,11.48
2018-03-21T18:12:48.113Z,14.20
2018-03-21T18:15:17.136Z,17.73
2018-03-21T18:17:45.377Z,14.10
2018-03-21T18:20:14.504Z,20.85
2018-03-21T18:22:42.747Z,15.65
2018-03-21T18:25:11.748Z,19.75
2018-03-21T18:27:40.767Z,22.13
2018-03-21T18:30:09.005Z,20.05
2018-03-21T18:32:38.029Z,19.12
2018-03-21T18:35:06.268Z,17.55
2018-03-21T18:37:35.268Z,18.62
2018-03-21T18:40:04.276Z,29.58
2018-03-21T18:42:32.581Z,32.00
2018-03-21T18:45:00.844Z,36.75
2018-03-21T18:47:29.119Z,41.67
2018-03-21T18:49:57.446Z,41.55
2018-03-21T18:52:25.664Z,42.65
2018-03-21T18:54:53.959Z,26.75
2018-03-21T18:57:22.272Z,21.33
2018-03-21T18:59:50.494Z,18.23
2018-03-21T19:02:18.723Z,15.00
2018-03-21T19:04:46.973Z,15.88
2018-03-21T19:07:15.217Z,13.85
2018-03-21T19:09:43.480Z,13.48
2018-03-21T19:12:11.774Z,13.45
2018-03-21T19:14:40.041Z,13.20
2018-03-21T19:17:08.335Z,14.80
2018-03-21T19:19:36.598Z,16.40
2018-03-21T19:22:04.842Z,13.38
2018-03-21T19:24:33.844Z,15.55
2018-03-21T19:27:02.869Z,14.87
2018-03-21T19:29:31.141Z,15.00
2018-03-21T19:31:59.929Z,14.70
2018-03-21T19:34:28.201Z,18.55
2018-03-21T19:36:56.435Z,17.80
2018-03-21T19:39:25.464Z,11.57
2018-03-21T19:41:53.719Z,10.15
2018-03-21T19:44:22.735Z,8.00
2018-03-21T19:46:50.960Z,8.40
2018-03-21T19:49:19.279Z,11.88
2018-03-21T19:51:47.517Z,18.90
2018-03-21T19:54:16.601Z,14.15
2018-03-21T19:56:44.803Z,10.05
2018-03-21T19:59:13.089Z,9.32
2018-03-21T20:01:41.374Z,9.98
2018-03-21T20:04:09.653Z,10.90
2018-03-21T20:06:37.885Z,7.60
2018-03-21T20:09:06.150Z,8.75
2018-03-21T20:11:34.357Z,8.80
2018-03-21T20:14:02.598Z,9.88
2018-03-21T20:16:30.930Z,9.50
2018-03-21T20:18:59.212Z,12.10
2018-03-21T20:21:27.458Z,10.60
2018-03-21T20:23:55.748Z,10.68
2018-03-21T20:26:24.079Z,9.05
2018-03-21T20:28:52.281Z,9.63
2018-03-21T20:31:21.756Z,8.25
2018-03-21T20:33:49.966Z,5.40
2018-03-21T20:36:18.193Z,6.30
2018-03-21T20:38:46.534Z,6.12
2018-03-21T20:41:14.766Z,7.35
2018-03-21T20:43:43.076Z,7.62
2018-03-21T20:46:11.309Z,8.52
2018-03-21T20:48:39.551Z,9.63
2018-03-21T20:51:07.865Z,8.90
2018-03-21T20:53:36.093Z,8.35
2018-03-21T20:56:04.333Z,8.23
2018-03-21T20:58:33.352Z,8.80
2018-03-21T21:01:01.588Z,8.50
2018-03-21T21:03:30.598Z,9.70
2018-03-21T21:05:59.609Z,9.13
2018-03-21T21:08:27.837Z,9.73
2018-03-21T21:10:56.161Z,10.13
2018-03-21T21:13:24.400Z,8.73
2018-03-21T21:15:52.628Z,8.70
2018-03-21T21:18:20.852Z,9.32
2018-03-21T21:20:49.878Z,9.80
2018-03-21T21:23:18.151Z,12.18
2018-03-21T21:25:46.384Z,10.82
2018-03-21T21:28:14.713Z,10.05
2018-03-21T21:30:42.986Z,10.18
2018-03-21T21:33:11.217Z,10.90
2018-03-21T21:35:40.215Z,9.52
2018-03-21T21:38:09.240Z,11.25
2018-03-21T21:40:37.790Z,11.15
2018-03-21T21:43:06.792Z,8.57
2018-03-21T21:45:35.821Z,11.75
2018-03-21T21:48:04.055Z,12.48
2018-03-21T21:50:33.054Z,12.43
2018-03-21T21:53:02.057Z,9.15
2018-03-21T21:55:30.276Z,15.43
2018-03-21T21:57:58.516Z,13.57
2018-03-21T22:00:26.758Z,11.23
2018-03-21T22:02:55.789Z,11.05
2018-03-21T22:05:24.071Z,12.68
2018-03-21T22:07:52.313Z,12.00
2018-03-21T22:10:21.311Z,14.00
2018-03-21T22:12:49.597Z,15.13
2018-03-21T22:15:17.876Z,10.68
2018-03-21T22:17:46.104Z,14.52
2018-03-21T22:20:14.345Z,12.45
2018-03-21T22:22:42.599Z,12.13
2018-03-21T22:25:10.874Z,15.57
2018-03-21T22:27:39.099Z,14.68
2018-03-21T22:30:07.681Z,11.57
2018-03-21T22:32:35.881Z,15.60
2018-03-21T22:35:04.876Z,14.82
2018-03-21T22:37:33.892Z,12.18
2018-03-21T22:40:02.120Z,12.65
2018-03-21T22:42:30.393Z,13.15
2018-03-21T22:44:58.588Z,15.43
2018-03-21T22:47:27.595Z,18.62
2018-03-21T22:49:55.883Z,15.02
2018-03-21T22:52:24.120Z,16.92
2018-03-21T22:54:53.112Z,17.17
2018-03-21T22:57:22.119Z,16.42
2018-03-21T22:59:51.119Z,16.17
2018-03-21T23:02:19.403Z,15.32
2018-03-21T23:04:47.636Z,20.33
2018-03-21T23:07:15.957Z,15.85
2018-03-21T23:09:44.232Z,15.52
2018-03-21T23:12:12.525Z,13.55
2018-03-21T23:14:40.751Z,17.08
2018-03-21T23:17:09.785Z,14.65
2018-03-21T23:19:38.024Z,13.57
2018-03-21T23:22:07.020Z,16.55
2018-03-21T23:24:36.030Z,14.98
2018-03-21T23:27:04.273Z,12.20
2018-03-21T23:29:33.299Z,18.27
2018-03-21T23:32:01.540Z,16.08
2018-03-21T23:34:29.772Z,18.98
2018-03-21T23:36:58.021Z,17.73
2018-03-21T23:39:26.262Z,20.60
2018-03-21T23:41:55.282Z,19.77
2018-03-21T23:44:23.538Z,19.92
2018-03-21T23:46:52.564Z,22.67
2018-03-21T23:49:20.849Z,22.37
2018-03-21T23:51:49.101Z,18.62
2018-03-21T23:54:17.402Z,19.60
2018-03-21T23:56:45.665Z,19.12
2018-03-21T23:59:13.950Z,22.10
